sensor_id;sensor_type;location;lat;lon;timestamp;temperature;humidity
5940;DHT22;2995;-31.998;115.906;2022-11-20T00:01:47;19.60;99.90
5940;DHT22;2995;-31.998;115.906;2022-11-20T00:04:18;20.30;99.90
5940;DHT22;2995;-31.998;115.906;2022-11-20T00:06:51;20.50;99.90
5940;DHT22;2995;-31.998;115.906;2022-11-20T00:09:23;21.00;99.90
5940;DHT22;2995;-31.998;115.906;2022-11-20T00:11:54;20.50;99.90
5940;DHT22;2995;-31.998;115.906;2022-11-20T00:14:25;20.90;99.90
5940;DHT22;2995;-31.998;115.906;2022-11-20T00:16:56;20.20;99.90
5940;DHT22;2995;-31.998;115.906;2022-11-20T00:19:28;21.00;99.90
5940;DHT22;2995;-31.998;115.906;2022-11-20T00:22:01;21.50;99.90
5940;DHT22;2995;-31.998;115.906;2022-11-20T00:24:32;21.90;99.90
5940;DHT22;2995;-31.998;115.906;2022-11-20T00:27:04;21.70;99.90
5940;DHT22;2995;-31.998;115.906;2022-11-20T00:29:35;21.30;99.90
5940;DHT22;2995;-31.998;115.906;2022-11-20T00:32:06;22.20;99.90
5940;DHT22;2995;-31.998;115.906;2022-11-20T00:34:37;21.90;99.90
5940;DHT22;2995;-31.998;115.906;2022-11-20T00:37:11;22.50;99.90
5940;DHT22;2995;-31.998;115.906;2022-11-20T00:39:43;23.10;99.90
5940;DHT22;2995;-31.998;115.906;2022-11-20T00:42:15;22.50;99.90
5940;DHT22;2995;-31.998;115.906;2022-11-20T00:44:46;23.00;99.90
5940;DHT22;2995;-31.998;115.906;2022-11-20T00:47:18;23.80;99.90
5940;DHT22;2995;-31.998;115.906;2022-11-20T00:49:49;23.60;99.90
5940;DHT22;2995;-31.998;115.906;2022-11-20T00:52:22;22.70;99.90
5940;DHT22;2995;-31.998;115.906;2022-11-20T00:54:53;23.00;99.90
5940;DHT22;2995;-31.998;115.906;2022-11-20T00:57:25;22.70;99.90
5940;DHT22;2995;-31.998;115.906;2022-11-20T00:59:56;22.90;99.90
5940;DHT22;2995;-31.998;115.906;2022-11-20T01:02:27;23.30;99.90
5940;DHT22;2995;-31.998;115.906;2022-11-20T01:04:58;23.10;99.90
5940;DHT22;2995;-31.998;115.906;2022-11-20T01:07:33;23.20;99.90
5940;DHT22;2995;-31.998;115.906;2022-11-20T01:10:04;23.70;99.90
5940;DHT22;2995;-31.998;115.906;2022-11-20T01:12:36;23.10;99.90
5940;DHT22;2995;-31.998;115.906;2022-11-20T01:15:09;23.60;99.90
5940;DHT22;2995;-31.998;115.906;2022-11-20T01:17:40;24.40;99.90
5940;DHT22;2995;-31.998;115.906;2022-11-20T01:20:12;23.90;99.90
5940;DHT22;2995;-31.998;115.906;2022-11-20T01:22:45;23.70;99.90
5940;DHT22;2995;-31.998;115.906;2022-11-20T01:25:17;24.30;99.90
5940;DHT22;2995;-31.998;115.906;2022-11-20T01:27:49;23.70;99.90
5940;DHT22;2995;-31.998;115.906;2022-11-20T01:30:20;23.40;99.90
5940;DHT22;2995;-31.998;115.906;2022-11-20T01:32:52;23.90;99.90
5940;DHT22;2995;-31.998;115.906;2022-11-20T01:35:25;23.90;99.90
5940;DHT22;2995;-31.998;115.906;2022-11-20T01:37:59;24.10;99.90
5940;DHT22;2995;-31.998;115.906;2022-11-20T01:40:31;24.10;99.90
5940;DHT22;2995;-31.998;115.906;2022-11-20T01:43:12;24.40;99.90
5940;DHT22;2995;-31.998;115.906;2022-11-20T01:46:00;23.40;99.90
5940;DHT22;2995;-31.998;115.906;2022-11-20T01:48:36;23.20;99.90
5940;DHT22;2995;-31.998;115.906;2022-11-20T01:51:15;23.50;99.90
5940;DHT22;2995;-31.998;115.906;2022-11-20T01:53:50;23.90;99.90
5940;DHT22;2995;-31.998;115.906;2022-11-20T01:56:22;24.10;99.90
5940;DHT22;2995;-31.998;115.906;2022-11-20T01:58:58;24.20;99.90
5940;DHT22;2995;-31.998;115.906;2022-11-20T02:01:31;23.80;99.90
5940;DHT22;2995;-31.998;115.906;2022-11-20T02:04:03;23.50;99.90
5940;DHT22;2995;-31.998;115.906;2022-11-20T02:06:38;23.10;99.90
5940;DHT22;2995;-31.998;115.906;2022-11-20T02:09:13;22.70;99.90
5940;DHT22;2995;-31.998;115.906;2022-11-20T02:11:45;22.70;99.90
5940;DHT22;2995;-31.998;115.906;2022-11-20T02:14:16;22.20;99.90
5940;DHT22;2995;-31.998;115.906;2022-11-20T02:16:47;22.20;99.90
5940;DHT22;2995;-31.998;115.906;2022-11-20T02:19:27;21.90;99.90
5940;DHT22;2995;-31.998;115.906;2022-11-20T02:22:02;21.80;99.90
5940;DHT22;2995;-31.998;115.906;2022-11-20T02:24:38;21.80;99.90
5940;DHT22;2995;-31.998;115.906;2022-11-20T02:27:13;21.90;99.90
5940;DHT22;2995;-31.998;115.906;2022-11-20T02:29:48;22.30;99.90
5940;DHT22;2995;-31.998;115.906;2022-11-20T02:32:21;22.30;99.90
5940;DHT22;2995;-31.998;115.906;2022-11-20T02:34:53;22.10;99.90
5940;DHT22;2995;-31.998;115.906;2022-11-20T02:37:26;21.90;99.90
5940;DHT22;2995;-31.998;115.906;2022-11-20T02:40:02;21.90;99.90
5940;DHT22;2995;-31.998;115.906;2022-11-20T02:42:34;21.80;99.90
5940;DHT22;2995;-31.998;115.906;2022-11-20T02:45:06;21.90;99.90
5940;DHT22;2995;-31.998;115.906;2022-11-20T02:47:37;21.50;99.90
5940;DHT22;2995;-31.998;115.906;2022-11-20T02:50:09;21.40;99.90
5940;DHT22;2995;-31.998;115.906;2022-11-20T02:52:40;21.60;99.90
5940;DHT22;2995;-31.998;115.906;2022-11-20T02:55:15;21.90;99.90
5940;DHT22;2995;-31.998;115.906;2022-11-20T02:57:46;21.60;99.90
5940;DHT22;2995;-31.998;115.906;2022-11-20T03:00:17;21.70;99.90
5940;DHT22;2995;-31.998;115.906;2022-11-20T03:02:49;22.20;99.90
5940;DHT22;2995;-31.998;115.906;2022-11-20T03:05:21;22.20;99.90
5940;DHT22;2995;-31.998;115.906;2022-11-20T03:07:52;22.20;99.90
5940;DHT22;2995;-31.998;115.906;2022-11-20T03:10:25;22.40;99.90
5940;DHT22;2995;-31.998;115.906;2022-11-20T03:12:56;22.60;99.90
5940;DHT22;2995;-31.998;115.906;2022-11-20T03:15:28;22.40;99.90
5940;DHT22;2995;-31.998;115.906;2022-11-20T03:17:59;22.40;99.90
5940;DHT22;2995;-31.998;115.906;2022-11-20T03:20:31;22.40;99.90
5940;DHT22;2995;-31.998;115.906;2022-11-20T03:23:03;22.30;99.90
5940;DHT22;2995;-31.998;115.906;2022-11-20T03:25:36;22.10;99.90
5940;DHT22;2995;-31.998;115.906;2022-11-20T03:28:07;21.90;99.90
5940;DHT22;2995;-31.998;115.906;2022-11-20T03:30:39;22.10;99.90
5940;DHT22;2995;-31.998;115.906;2022-11-20T03:33:10;22.00;99.90
5940;DHT22;2995;-31.998;115.906;2022-11-20T03:35:41;22.10;99.90
5940;DHT22;2995;-31.998;115.906;2022-11-20T03:38:13;21.90;99.90
5940;DHT22;2995;-31.998;115.906;2022-11-20T03:40:46;22.10;99.90
5940;DHT22;2995;-31.998;115.906;2022-11-20T03:43:17;22.50;99.90
5940;DHT22;2995;-31.998;115.906;2022-11-20T03:45:48;22.60;99.90
5940;DHT22;2995;-31.998;115.906;2022-11-20T03:48:20;22.50;99.90
5940;DHT22;2995;-31.998;115.906;2022-11-20T03:50:51;22.40;99.90
5940;DHT22;2995;-31.998;115.906;2022-11-20T03:53:23;22.40;99.90
5940;DHT22;2995;-31.998;115.906;2022-11-20T03:55:56;22.50;99.90
5940;DHT22;2995;-31.998;115.906;2022-11-20T03:58:27;22.40;99.90
5940;DHT22;2995;-31.998;115.906;2022-11-20T04:01:03;22.80;99.90
5940;DHT22;2995;-31.998;115.906;2022-11-20T04:03:34;23.00;99.90
5940;DHT22;2995;-31.998;115.906;2022-11-20T04:06:07;22.90;99.90
5940;DHT22;2995;-31.998;115.906;2022-11-20T04:08:39;22.90;99.90
5940;DHT22;2995;-31.998;115.906;2022-11-20T04:11:17;22.70;99.90
5940;DHT22;2995;-31.998;115.906;2022-11-20T04:13:49;22.70;99.90
5940;DHT22;2995;-31.998;115.906;2022-11-20T04:16:21;23.10;99.90
5940;DHT22;2995;-31.998;115.906;2022-11-20T04:18:57;23.30;99.90
5940;DHT22;2995;-31.998;115.906;2022-11-20T04:21:28;23.40;99.90
5940;DHT22;2995;-31.998;115.906;2022-11-20T04:23:59;23.40;99.90
5940;DHT22;2995;-31.998;115.906;2022-11-20T04:26:33;23.40;99.90
5940;DHT22;2995;-31.998;115.906;2022-11-20T04:29:04;23.40;99.90
5940;DHT22;2995;-31.998;115.906;2022-11-20T04:31:36;23.30;99.90
5940;DHT22;2995;-31.998;115.906;2022-11-20T04:34:10;23.20;99.90
5940;DHT22;2995;-31.998;115.906;2022-11-20T04:36:42;22.70;99.90
5940;DHT22;2995;-31.998;115.906;2022-11-20T04:39:14;23.10;99.90
5940;DHT22;2995;-31.998;115.906;2022-11-20T04:41:47;23.40;99.90
5940;DHT22;2995;-31.998;115.906;2022-11-20T04:44:39;23.60;99.90
5940;DHT22;2995;-31.998;115.906;2022-11-20T04:47:11;23.80;99.90
5940;DHT22;2995;-31.998;115.906;2022-11-20T04:49:43;23.80;99.90
5940;DHT22;2995;-31.998;115.906;2022-11-20T04:52:15;23.70;99.90
5940;DHT22;2995;-31.998;115.906;2022-11-20T04:54:47;23.60;99.90
5940;DHT22;2995;-31.998;115.906;2022-11-20T04:57:22;23.40;99.90
5940;DHT22;2995;-31.998;115.906;2022-11-20T04:59:55;23.30;99.90
5940;DHT22;2995;-31.998;115.906;2022-11-20T05:02:26;23.50;99.90
5940;DHT22;2995;-31.998;115.906;2022-11-20T05:04:58;23.20;99.90
5940;DHT22;2995;-31.998;115.906;2022-11-20T05:07:30;23.20;99.90
5940;DHT22;2995;-31.998;115.906;2022-11-20T05:10:01;23.30;99.90
5940;DHT22;2995;-31.998;115.906;2022-11-20T05:12:35;23.30;99.90
5940;DHT22;2995;-31.998;115.906;2022-11-20T05:15:07;23.50;99.90
5940;DHT22;2995;-31.998;115.906;2022-11-20T05:17:39;23.70;99.90
5940;DHT22;2995;-31.998;115.906;2022-11-20T05:20:11;23.50;99.90
5940;DHT22;2995;-31.998;115.906;2022-11-20T05:22:42;23.60;99.90
5940;DHT22;2995;-31.998;115.906;2022-11-20T05:25:14;23.90;99.90
5940;DHT22;2995;-31.998;115.906;2022-11-20T05:27:48;23.40;99.90
5940;DHT22;2995;-31.998;115.906;2022-11-20T05:30:19;22.90;99.90
5940;DHT22;2995;-31.998;115.906;2022-11-20T05:32:51;22.80;99.90
5940;DHT22;2995;-31.998;115.906;2022-11-20T05:35:22;22.80;99.90
5940;DHT22;2995;-31.998;115.906;2022-11-20T05:37:55;23.10;99.90
5940;DHT22;2995;-31.998;115.906;2022-11-20T05:40:27;23.30;99.90
5940;DHT22;2995;-31.998;115.906;2022-11-20T05:43:00;23.60;99.90
5940;DHT22;2995;-31.998;115.906;2022-11-20T05:45:32;23.70;99.90
5940;DHT22;2995;-31.998;115.906;2022-11-20T05:48:03;23.80;99.90
5940;DHT22;2995;-31.998;115.906;2022-11-20T05:50:34;23.70;99.90
5940;DHT22;2995;-31.998;115.906;2022-11-20T05:53:06;23.70;99.90
5940;DHT22;2995;-31.998;115.906;2022-11-20T05:55:37;23.70;99.90
5940;DHT22;2995;-31.998;115.906;2022-11-20T05:58:10;23.60;99.90
5940;DHT22;2995;-31.998;115.906;2022-11-20T06:00:42;23.90;99.90
5940;DHT22;2995;-31.998;115.906;2022-11-20T06:03:13;24.10;99.90
5940;DHT22;2995;-31.998;115.906;2022-11-20T06:05:45;24.10;99.90
5940;DHT22;2995;-31.998;115.906;2022-11-20T06:08:16;23.90;99.90
5940;DHT22;2995;-31.998;115.906;2022-11-20T06:10:48;23.80;99.90
5940;DHT22;2995;-31.998;115.906;2022-11-20T06:13:21;23.90;99.90
5940;DHT22;2995;-31.998;115.906;2022-11-20T06:15:53;24.00;99.90
5940;DHT22;2995;-31.998;115.906;2022-11-20T06:18:27;23.90;99.90
5940;DHT22;2995;-31.998;115.906;2022-11-20T06:21:02;23.80;99.90
5940;DHT22;2995;-31.998;115.906;2022-11-20T06:23:34;23.80;99.90
5940;DHT22;2995;-31.998;115.906;2022-11-20T06:26:07;23.80;99.90
5940;DHT22;2995;-31.998;115.906;2022-11-20T06:28:41;24.00;99.90
5940;DHT22;2995;-31.998;115.906;2022-11-20T06:31:15;23.90;99.90
5940;DHT22;2995;-31.998;115.906;2022-11-20T06:33:48;23.90;99.90
5940;DHT22;2995;-31.998;115.906;2022-11-20T06:36:21;23.90;99.90
5940;DHT22;2995;-31.998;115.906;2022-11-20T06:38:53;23.70;99.90
5940;DHT22;2995;-31.998;115.906;2022-11-20T06:41:25;23.60;99.90
5940;DHT22;2995;-31.998;115.906;2022-11-20T06:43:58;23.60;99.90
5940;DHT22;2995;-31.998;115.906;2022-11-20T06:46:30;23.40;99.90
5940;DHT22;2995;-31.998;115.906;2022-11-20T06:49:01;23.60;99.90
5940;DHT22;2995;-31.998;115.906;2022-11-20T06:51:32;23.60;99.90
5940;DHT22;2995;-31.998;115.906;2022-11-20T06:54:04;23.60;99.90
5940;DHT22;2995;-31.998;115.906;2022-11-20T06:56:35;23.50;99.90
5940;DHT22;2995;-31.998;115.906;2022-11-20T06:59:08;23.40;99.90
5940;DHT22;2995;-31.998;115.906;2022-11-20T07:01:40;23.50;99.90
5940;DHT22;2995;-31.998;115.906;2022-11-20T07:04:11;23.40;99.90
5940;DHT22;2995;-31.998;115.906;2022-11-20T07:06:42;23.40;99.90
5940;DHT22;2995;-31.998;115.906;2022-11-20T07:09:14;23.30;99.90
5940;DHT22;2995;-31.998;115.906;2022-11-20T07:11:45;23.20;99.90
5940;DHT22;2995;-31.998;115.906;2022-11-20T07:14:19;23.20;99.90
5940;DHT22;2995;-31.998;115.906;2022-11-20T07:16:50;23.30;99.90
5940;DHT22;2995;-31.998;115.906;2022-11-20T07:19:21;23.10;99.90
5940;DHT22;2995;-31.998;115.906;2022-11-20T07:21:53;23.00;99.90
5940;DHT22;2995;-31.998;115.906;2022-11-20T07:24:24;22.90;99.90
5940;DHT22;2995;-31.998;115.906;2022-11-20T07:26:55;23.00;99.90
5940;DHT22;2995;-31.998;115.906;2022-11-20T07:29:29;23.10;99.90
5940;DHT22;2995;-31.998;115.906;2022-11-20T07:32:01;23.00;99.90
5940;DHT22;2995;-31.998;115.906;2022-11-20T07:34:32;22.90;99.90
5940;DHT22;2995;-31.998;115.906;2022-11-20T07:37:03;23.10;99.90
5940;DHT22;2995;-31.998;115.906;2022-11-20T07:39:35;22.90;99.90
5940;DHT22;2995;-31.998;115.906;2022-11-20T07:42:08;23.00;99.90
5940;DHT22;2995;-31.998;115.906;2022-11-20T07:44:42;23.00;99.90
5940;DHT22;2995;-31.998;115.906;2022-11-20T07:47:13;22.80;99.90
5940;DHT22;2995;-31.998;115.906;2022-11-20T07:49:44;22.60;99.90
5940;DHT22;2995;-31.998;115.906;2022-11-20T07:52:15;22.50;99.90
5940;DHT22;2995;-31.998;115.906;2022-11-20T07:54:47;22.40;99.90
5940;DHT22;2995;-31.998;115.906;2022-11-20T07:57:19;22.50;99.90
5940;DHT22;2995;-31.998;115.906;2022-11-20T07:59:52;22.40;99.90
5940;DHT22;2995;-31.998;115.906;2022-11-20T08:02:24;22.40;99.90
5940;DHT22;2995;-31.998;115.906;2022-11-20T08:04:56;22.50;99.90
5940;DHT22;2995;-31.998;115.906;2022-11-20T08:07:27;22.60;99.90
5940;DHT22;2995;-31.998;115.906;2022-11-20T08:09:58;22.50;99.90
5940;DHT22;2995;-31.998;115.906;2022-11-20T08:12:30;22.20;99.90
5940;DHT22;2995;-31.998;115.906;2022-11-20T08:15:19;22.10;99.90
5940;DHT22;2995;-31.998;115.906;2022-11-20T08:17:50;21.90;99.90
5940;DHT22;2995;-31.998;115.906;2022-11-20T08:20:21;22.00;99.90
5940;DHT22;2995;-31.998;115.906;2022-11-20T08:22:52;22.10;99.90
5940;DHT22;2995;-31.998;115.906;2022-11-20T08:25:28;22.10;99.90
5940;DHT22;2995;-31.998;115.906;2022-11-20T08:28:00;22.10;99.90
5940;DHT22;2995;-31.998;115.906;2022-11-20T08:30:34;22.10;99.90
5940;DHT22;2995;-31.998;115.906;2022-11-20T08:33:06;21.90;99.90
5940;DHT22;2995;-31.998;115.906;2022-11-20T08:35:38;21.90;99.90
5940;DHT22;2995;-31.998;115.906;2022-11-20T08:38:10;21.90;99.90
5940;DHT22;2995;-31.998;115.906;2022-11-20T08:40:42;21.90;99.90
5940;DHT22;2995;-31.998;115.906;2022-11-20T08:43:35;21.90;99.90
5940;DHT22;2995;-31.998;115.906;2022-11-20T08:46:09;21.90;99.90
5940;DHT22;2995;-31.998;115.906;2022-11-20T08:48:40;21.90;99.90
5940;DHT22;2995;-31.998;115.906;2022-11-20T08:51:12;21.80;99.90
5940;DHT22;2995;-31.998;115.906;2022-11-20T08:53:44;21.80;99.90
5940;DHT22;2995;-31.998;115.906;2022-11-20T08:56:16;21.80;99.90
5940;DHT22;2995;-31.998;115.906;2022-11-20T08:58:49;21.70;99.90
5940;DHT22;2995;-31.998;115.906;2022-11-20T09:01:23;21.50;99.90
5940;DHT22;2995;-31.998;115.906;2022-11-20T09:03:56;21.50;99.90
5940;DHT22;2995;-31.998;115.906;2022-11-20T09:06:28;21.70;99.90
5940;DHT22;2995;-31.998;115.906;2022-11-20T09:08:59;21.70;99.90
5940;DHT22;2995;-31.998;115.906;2022-11-20T09:11:30;21.70;99.90
5940;DHT22;2995;-31.998;115.906;2022-11-20T09:14:01;21.80;99.90
5940;DHT22;2995;-31.998;115.906;2022-11-20T09:16:35;21.80;99.90
5940;DHT22;2995;-31.998;115.906;2022-11-20T09:19:06;21.80;99.90
5940;DHT22;2995;-31.998;115.906;2022-11-20T09:21:37;21.70;99.90
5940;DHT22;2995;-31.998;115.906;2022-11-20T09:24:09;21.60;99.90
5940;DHT22;2995;-31.998;115.906;2022-11-20T09:26:40;21.50;99.90
5940;DHT22;2995;-31.998;115.906;2022-11-20T09:29:11;21.40;99.90
5940;DHT22;2995;-31.998;115.906;2022-11-20T09:31:45;21.40;99.90
5940;DHT22;2995;-31.998;115.906;2022-11-20T09:34:17;21.40;99.90
5940;DHT22;2995;-31.998;115.906;2022-11-20T09:36:48;21.40;99.90
5940;DHT22;2995;-31.998;115.906;2022-11-20T09:39:20;21.30;99.90
5940;DHT22;2995;-31.998;115.906;2022-11-20T09:42:12;21.40;99.90
5940;DHT22;2995;-31.998;115.906;2022-11-20T09:47:58;21.10;99.90
5940;DHT22;2995;-31.998;115.906;2022-11-20T09:50:35;21.10;99.90
5940;DHT22;2995;-31.998;115.906;2022-11-20T09:53:15;21.00;99.90
5940;DHT22;2995;-31.998;115.906;2022-11-20T09:55:47;20.90;99.90
5940;DHT22;2995;-31.998;115.906;2022-11-20T09:58:27;20.80;99.90
5940;DHT22;2995;-31.998;115.906;2022-11-20T10:01:05;20.90;99.90
5940;DHT22;2995;-31.998;115.906;2022-11-20T10:03:48;20.80;99.90
5940;DHT22;2995;-31.998;115.906;2022-11-20T10:06:24;20.70;99.90
5940;DHT22;2995;-31.998;115.906;2022-11-20T10:09:20;20.80;99.90
5940;DHT22;2995;-31.998;115.906;2022-11-20T10:12:12;20.70;99.90
5940;DHT22;2995;-31.998;115.906;2022-11-20T10:14:56;20.70;99.90
5940;DHT22;2995;-31.998;115.906;2022-11-20T10:17:41;20.50;99.90
5940;DHT22;2995;-31.998;115.906;2022-11-20T10:20:23;20.40;99.90
5940;DHT22;2995;-31.998;115.906;2022-11-20T10:23:21;20.30;99.90
5940;DHT22;2995;-31.998;115.906;2022-11-20T10:26:02;20.20;99.90
5940;DHT22;2995;-31.998;115.906;2022-11-20T10:28:48;20.20;99.90
5940;DHT22;2995;-31.998;115.906;2022-11-20T10:31:28;20.00;99.90
5940;DHT22;2995;-31.998;115.906;2022-11-20T10:34:05;20.00;99.90
5940;DHT22;2995;-31.998;115.906;2022-11-20T10:36:43;19.90;99.90
5940;DHT22;2995;-31.998;115.906;2022-11-20T10:39:20;19.80;99.90
5940;DHT22;2995;-31.998;115.906;2022-11-20T10:41:53;19.80;99.90
5940;DHT22;2995;-31.998;115.906;2022-11-20T10:44:27;19.80;99.90
5940;DHT22;2995;-31.998;115.906;2022-11-20T10:47:20;19.70;99.90
5940;DHT22;2995;-31.998;115.906;2022-11-20T10:49:53;19.60;99.90
5940;DHT22;2995;-31.998;115.906;2022-11-20T10:52:35;19.60;99.90
5940;DHT22;2995;-31.998;115.906;2022-11-20T10:55:15;19.50;99.90
5940;DHT22;2995;-31.998;115.906;2022-11-20T10:57:53;19.40;99.90
5940;DHT22;2995;-31.998;115.906;2022-11-20T11:00:25;19.30;99.90
5940;DHT22;2995;-31.998;115.906;2022-11-20T11:02:57;19.30;99.90
5940;DHT22;2995;-31.998;115.906;2022-11-20T11:05:38;19.30;99.90
5940;DHT22;2995;-31.998;115.906;2022-11-20T11:08:16;19.20;99.90
5940;DHT22;2995;-31.998;115.906;2022-11-20T11:10:53;19.10;99.90
5940;DHT22;2995;-31.998;115.906;2022-11-20T11:13:25;19.10;99.90
5940;DHT22;2995;-31.998;115.906;2022-11-20T11:15:57;19.10;99.90
5940;DHT22;2995;-31.998;115.906;2022-11-20T11:18:31;19.10;99.90
5940;DHT22;2995;-31.998;115.906;2022-11-20T11:21:03;19.00;99.90
5940;DHT22;2995;-31.998;115.906;2022-11-20T11:23:38;18.90;99.90
5940;DHT22;2995;-31.998;115.906;2022-11-20T11:26:20;18.80;99.90
5940;DHT22;2995;-31.998;115.906;2022-11-20T11:28:56;18.80;99.90
5940;DHT22;2995;-31.998;115.906;2022-11-20T11:31:29;18.80;99.90
5940;DHT22;2995;-31.998;115.906;2022-11-20T11:34:11;18.80;99.90
5940;DHT22;2995;-31.998;115.906;2022-11-20T11:36:52;18.60;99.90
5940;DHT22;2995;-31.998;115.906;2022-11-20T11:39:28;18.70;99.90
5940;DHT22;2995;-31.998;115.906;2022-11-20T11:42:02;18.70;99.90
5940;DHT22;2995;-31.998;115.906;2022-11-20T11:44:35;18.60;99.90
5940;DHT22;2995;-31.998;115.906;2022-11-20T11:47:23;18.50;99.90
5940;DHT22;2995;-31.998;115.906;2022-11-20T11:52:53;18.50;99.90
5940;DHT22;2995;-31.998;115.906;2022-11-20T11:55:33;18.50;99.90
5940;DHT22;2995;-31.998;115.906;2022-11-20T11:58:20;18.40;99.90
5940;DHT22;2995;-31.998;115.906;2022-11-20T12:01:00;18.40;99.90
5940;DHT22;2995;-31.998;115.906;2022-11-20T12:03:37;18.40;99.90
5940;DHT22;2995;-31.998;115.906;2022-11-20T12:06:13;18.40;99.90
5940;DHT22;2995;-31.998;115.906;2022-11-20T12:08:48;18.30;99.90
5940;DHT22;2995;-31.998;115.906;2022-11-20T12:11:28;18.20;99.90
5940;DHT22;2995;-31.998;115.906;2022-11-20T12:14:08;18.30;99.90
5940;DHT22;2995;-31.998;115.906;2022-11-20T12:16:42;18.20;99.90
5940;DHT22;2995;-31.998;115.906;2022-11-20T12:19:14;18.30;99.90
5940;DHT22;2995;-31.998;115.906;2022-11-20T12:21:55;18.10;99.90
5940;DHT22;2995;-31.998;115.906;2022-11-20T12:24:46;18.10;99.90
5940;DHT22;2995;-31.998;115.906;2022-11-20T12:27:52;18.00;99.90
5940;DHT22;2995;-31.998;115.906;2022-11-20T12:30:28;18.00;99.90
5940;DHT22;2995;-31.998;115.906;2022-11-20T12:33:18;18.00;99.90
5940;DHT22;2995;-31.998;115.906;2022-11-20T12:36:09;18.00;99.90
5940;DHT22;2995;-31.998;115.906;2022-11-20T12:42:13;17.90;99.90
5940;DHT22;2995;-31.998;115.906;2022-11-20T12:45:27;17.80;99.90
5940;DHT22;2995;-31.998;115.906;2022-11-20T12:48:19;17.90;99.90
5940;DHT22;2995;-31.998;115.906;2022-11-20T12:51:12;17.80;99.90
5940;DHT22;2995;-31.998;115.906;2022-11-20T12:53:52;17.70;99.90
5940;DHT22;2995;-31.998;115.906;2022-11-20T12:56:33;17.70;99.90
5940;DHT22;2995;-31.998;115.906;2022-11-20T12:59:19;17.70;99.90
5940;DHT22;2995;-31.998;115.906;2022-11-20T13:02:01;17.60;99.90
5940;DHT22;2995;-31.998;115.906;2022-11-20T13:04:58;17.60;99.90
5940;DHT22;2995;-31.998;115.906;2022-11-20T13:07:32;17.50;99.90
5940;DHT22;2995;-31.998;115.906;2022-11-20T13:10:04;17.50;99.90
5940;DHT22;2995;-31.998;115.906;2022-11-20T13:12:44;17.60;99.90
5940;DHT22;2995;-31.998;115.906;2022-11-20T13:15:22;17.60;99.90
5940;DHT22;2995;-31.998;115.906;2022-11-20T13:18:00;17.50;99.90
5940;DHT22;2995;-31.998;115.906;2022-11-20T13:20:34;17.50;99.90
5940;DHT22;2995;-31.998;115.906;2022-11-20T13:23:06;17.50;99.90
5940;DHT22;2995;-31.998;115.906;2022-11-20T13:25:39;17.40;99.90
5940;DHT22;2995;-31.998;115.906;2022-11-20T13:28:27;17.40;99.90
5940;DHT22;2995;-31.998;115.906;2022-11-20T13:31:00;17.30;99.90
5940;DHT22;2995;-31.998;115.906;2022-11-20T13:33:35;17.30;99.90
5940;DHT22;2995;-31.998;115.906;2022-11-20T13:36:22;17.20;99.90
5940;DHT22;2995;-31.998;115.906;2022-11-20T13:38:54;17.20;99.90
5940;DHT22;2995;-31.998;115.906;2022-11-20T13:41:27;17.10;99.90
5940;DHT22;2995;-31.998;115.906;2022-11-20T13:44:05;17.00;99.90
5940;DHT22;2995;-31.998;115.906;2022-11-20T13:46:41;17.10;99.90
5940;DHT22;2995;-31.998;115.906;2022-11-20T13:49:25;17.10;99.90
5940;DHT22;2995;-31.998;115.906;2022-11-20T13:52:22;17.10;99.90
5940;DHT22;2995;-31.998;115.906;2022-11-20T13:55:06;17.10;99.90
5940;DHT22;2995;-31.998;115.906;2022-11-20T13:58:05;17.00;99.90
5940;DHT22;2995;-31.998;115.906;2022-11-20T14:00:45;17.00;99.90
5940;DHT22;2995;-31.998;115.906;2022-11-20T14:03:21;17.00;99.90
5940;DHT22;2995;-31.998;115.906;2022-11-20T14:05:59;17.00;99.90
5940;DHT22;2995;-31.998;115.906;2022-11-20T14:08:37;16.90;99.90
5940;DHT22;2995;-31.998;115.906;2022-11-20T14:11:16;16.90;99.90
5940;DHT22;2995;-31.998;115.906;2022-11-20T14:14:02;16.90;99.90
5940;DHT22;2995;-31.998;115.906;2022-11-20T14:16:35;16.80;99.90
5940;DHT22;2995;-31.998;115.906;2022-11-20T14:19:28;16.80;99.90
5940;DHT22;2995;-31.998;115.906;2022-11-20T14:22:20;16.70;99.90
5940;DHT22;2995;-31.998;115.906;2022-11-20T14:25:04;16.70;99.90
5940;DHT22;2995;-31.998;115.906;2022-11-20T14:27:38;16.60;99.90
5940;DHT22;2995;-31.998;115.906;2022-11-20T14:30:15;16.60;99.90
5940;DHT22;2995;-31.998;115.906;2022-11-20T14:32:47;16.50;99.90
5940;DHT22;2995;-31.998;115.906;2022-11-20T14:35:23;16.50;99.90
5940;DHT22;2995;-31.998;115.906;2022-11-20T14:37:58;16.50;99.90
5940;DHT22;2995;-31.998;115.906;2022-11-20T14:40:31;16.40;99.90
5940;DHT22;2995;-31.998;115.906;2022-11-20T14:43:17;16.30;99.90
5940;DHT22;2995;-31.998;115.906;2022-11-20T14:45:55;16.20;99.90
5940;DHT22;2995;-31.998;115.906;2022-11-20T14:48:31;16.10;99.90
5940;DHT22;2995;-31.998;115.906;2022-11-20T14:51:04;16.00;99.90
5940;DHT22;2995;-31.998;115.906;2022-11-20T14:53:38;16.00;99.90
5940;DHT22;2995;-31.998;115.906;2022-11-20T14:56:10;16.00;99.90
5940;DHT22;2995;-31.998;115.906;2022-11-20T14:58:56;16.00;99.90
5940;DHT22;2995;-31.998;115.906;2022-11-20T15:01:29;16.00;99.90
5940;DHT22;2995;-31.998;115.906;2022-11-20T15:04:08;16.00;99.90
5940;DHT22;2995;-31.998;115.906;2022-11-20T15:06:50;15.90;99.90
5940;DHT22;2995;-31.998;115.906;2022-11-20T15:09:25;15.80;99.90
5940;DHT22;2995;-31.998;115.906;2022-11-20T15:11:58;15.80;99.90
5940;DHT22;2995;-31.998;115.906;2022-11-20T15:14:31;15.70;99.90
5940;DHT22;2995;-31.998;115.906;2022-11-20T15:17:04;15.60;99.90
5940;DHT22;2995;-31.998;115.906;2022-11-20T15:19:36;15.60;99.90
5940;DHT22;2995;-31.998;115.906;2022-11-20T15:22:11;15.50;99.90
5940;DHT22;2995;-31.998;115.906;2022-11-20T15:24:46;15.60;99.90
5940;DHT22;2995;-31.998;115.906;2022-11-20T15:27:17;15.60;99.90
5940;DHT22;2995;-31.998;115.906;2022-11-20T15:29:49;15.60;99.90
5940;DHT22;2995;-31.998;115.906;2022-11-20T15:32:20;15.60;99.90
5940;DHT22;2995;-31.998;115.906;2022-11-20T15:34:52;15.50;99.90
5940;DHT22;2995;-31.998;115.906;2022-11-20T15:37:23;15.40;99.90
5940;DHT22;2995;-31.998;115.906;2022-11-20T15:39:57;15.30;99.90
5940;DHT22;2995;-31.998;115.906;2022-11-20T15:42:29;15.30;99.90
5940;DHT22;2995;-31.998;115.906;2022-11-20T15:45:01;15.30;99.90
5940;DHT22;2995;-31.998;115.906;2022-11-20T15:47:34;15.40;99.90
5940;DHT22;2995;-31.998;115.906;2022-11-20T15:50:11;15.40;99.90
5940;DHT22;2995;-31.998;115.906;2022-11-20T15:52:45;15.40;99.90
5940;DHT22;2995;-31.998;115.906;2022-11-20T15:55:19;15.40;99.90
5940;DHT22;2995;-31.998;115.906;2022-11-20T15:57:52;15.30;99.90
5940;DHT22;2995;-31.998;115.906;2022-11-20T16:00:24;15.30;99.90
5940;DHT22;2995;-31.998;115.906;2022-11-20T16:02:56;15.40;99.90
5940;DHT22;2995;-31.998;115.906;2022-11-20T16:05:29;15.60;99.90
5940;DHT22;2995;-31.998;115.906;2022-11-20T16:08:02;15.70;99.90
5940;DHT22;2995;-31.998;115.906;2022-11-20T16:10:36;15.60;99.90
5940;DHT22;2995;-31.998;115.906;2022-11-20T16:13:13;15.70;99.90